Norwalk, IA (50211)

1:10 AM CST on January 16, 2018 (GMT -0600)
Norwalk, IA (2mi SW) | | Change Station
Active Advisory: Wind Chill Advisory

Elev 919 ft 41.46 °N, 93.71 °W | Updated 11 seconds ago

Light Snow
Light Snow
-6.5 °F
Feels Like -20 °F
N
6.0
Wind Variable Wind from NNW
Gusts 8.9 mph

Today
High -- | Low -- °F
--% Chance of Precip.
Yesterday
High -- | Low -- °F
Precip. -- in
Pressure 30.69 in
Visibility 9.0 miles
Clouds Overcast 1400 ft
Windchill -20 °F
Dew Point -12 °F
Humidity 78%
Rainfall 0.00 in
Snow Depth Not available.
7:38 AM 5:11 PM
Waning Crescent, 1% visible
METAR KDSM 160654Z 32014KT 9SM -SN OVC014 M21/M25 A3061 RMK AO2 SLP393 P0000 T12061250
Pressure 30.69 in
Visibility 9.0 miles
Clouds Overcast 1400 ft
Windchill -20 °F
Dew Point -12 °F
Humidity 78%
Rainfall 0.00 in
Snow Depth Not available.
7:38 AM 5:11 PM
Waning Crescent, 1% visible
METAR KDSM 160654Z 32014KT 9SM -SN OVC014 M21/M25 A3061 RMK AO2 SLP393 P0000 T12061250

Get Your Daily Forecast Email!

Thanks for signing up!

Be on the lookout for a verification email in your inbox.

You'll start receiving severe weather alerts in your inbox..

×

10-Day Weather Forecast

Almanac

Astronomy

Jan. 16, 2018 Rise Set
Actual Time
Civil Twilight
Nautical Twilight
Astronomical Twilight
Moon
Length of Visible Light
Length of Day
Tomorrow will be .
, % of the Moon is Illuminated

Today's Extremes

State Highs State Lows

Community

WunderPhotos

Category 6

Welcome to Category 6. This is the collective home for Weather Underground's featured writeups by Dr. Jeff Masters (right), Bob Henson (left), Chris Burt, and other regular contributors.

Nearby

Air Quality

  Air Quality AQ Index Pollutant
Not available.

Snow Depth

Station Depth Elevation

Earthquake Activity

City Distance Mag. Time & Date
Minimum magnitude displayed is 2.5.

Coastal Water Temperatures

Place Temperature

Stations

Nearby Weather Stations

Station Location Temp. Windchill Dew Point Humidity Wind Precip. Elev Updated Type
                   

Watches & Warnings

Wind Chill Advisory
Issued: 8:59 PM CST Jan. 15, 2018 – National Weather Service

... Wind Chill Advisory remains in effect until noon CST Tuesday...

* what... very cold wind chills expected. The cold wind chills
will cause frostbite in as little as 30 minutes to exposed
skin. Expect wind chills to range from 15 below zero to 25
below zero.

* Where... portions of central and south central Iowa

* when... now to noon Tuesday.

Precautionary/preparedness actions...

A Wind Chill Advisory means that cold air and the wind will
combine to create low wind chills. Frost bite and hypothermia can
occur if precautions are not taken. Make sure you wear a hat and
gloves.


For more information from the National Weather Service visit
http://weather.Gov/desmoines